createdAt,value
2018-11-01T00:00:46.638Z,1.90
2018-11-01T00:03:14.450Z,2.83
2018-11-01T00:05:42.003Z,2.30
2018-11-01T00:08:09.572Z,3.17
2018-11-01T00:10:37.111Z,3.20
2018-11-01T00:13:04.666Z,3.40
2018-11-01T00:15:32.216Z,3.23
2018-11-01T00:17:59.768Z,3.03
2018-11-01T00:23:58.324Z,3.30
2018-11-01T00:26:25.822Z,2.90
2018-11-01T00:28:53.504Z,2.90
2018-11-01T00:31:21.043Z,3.20
2018-11-01T00:33:48.572Z,3.00
2018-11-01T00:36:16.132Z,2.20
2018-11-01T00:38:43.729Z,2.67
2018-11-01T00:41:11.280Z,2.80
2018-11-01T00:43:38.820Z,2.40
2018-11-01T00:46:06.389Z,1.87
2018-11-01T00:48:33.931Z,1.70
2018-11-01T00:51:01.553Z,1.50
2018-11-01T00:53:29.110Z,1.60
2018-11-01T00:55:57.345Z,1.60
2018-11-01T00:58:25.068Z,1.20
2018-11-01T01:00:52.601Z,2.40
2018-11-01T01:03:20.639Z,2.03
2018-11-01T01:05:48.602Z,2.20
2018-11-01T01:08:16.196Z,2.03
2018-11-01T01:10:43.759Z,2.47
2018-11-01T01:13:11.362Z,2.20
2018-11-01T01:15:38.920Z,2.20
2018-11-01T01:18:06.553Z,1.80
2018-11-01T01:20:34.090Z,1.60
2018-11-01T01:23:01.814Z,2.80
2018-11-01T01:25:29.347Z,2.03
2018-11-01T01:27:56.936Z,3.77
2018-11-01T01:30:25.984Z,3.63
2018-11-01T01:32:53.551Z,3.10
2018-11-01T01:35:21.112Z,2.30
2018-11-01T01:37:48.760Z,3.17
2018-11-01T01:40:16.376Z,2.30
2018-11-01T01:42:49.545Z,2.90
2018-11-01T01:45:17.105Z,2.00
2018-11-01T01:47:44.708Z,2.30
2018-11-01T01:50:13.400Z,1.87
2018-11-01T01:52:41.655Z,2.00
2018-11-01T01:55:09.466Z,1.60
2018-11-01T01:57:37.471Z,2.33
2018-11-01T02:00:06.959Z,3.07
2018-11-01T02:02:34.663Z,2.63
2018-11-01T02:05:02.468Z,3.20
2018-11-01T02:07:30.048Z,2.30
2018-11-01T02:09:57.728Z,2.67
2018-11-01T02:12:25.872Z,2.30
2018-11-01T02:14:53.410Z,3.60
2018-11-01T02:17:20.980Z,2.87
2018-11-01T02:19:48.521Z,3.73
2018-11-01T02:22:16.044Z,2.37
2018-11-01T02:24:43.633Z,1.80
2018-11-01T02:27:11.203Z,1.63
2018-11-01T02:29:38.735Z,2.50
2018-11-01T02:32:06.518Z,2.70
2018-11-01T02:34:34.096Z,2.90
2018-11-01T02:37:04.321Z,2.30
2018-11-01T02:39:32.047Z,2.27
2018-11-01T02:42:00.684Z,2.40
2018-11-01T02:44:28.252Z,2.90
2018-11-01T02:46:55.835Z,2.53
2018-11-01T02:49:23.379Z,3.23
2018-11-01T02:51:50.920Z,2.50
2018-11-01T02:54:18.480Z,2.90
2018-11-01T02:56:46.198Z,3.73
2018-11-01T02:59:13.806Z,2.27
2018-11-01T03:01:41.431Z,3.70
2018-11-01T03:04:09.225Z,4.23
2018-11-01T03:06:37.189Z,2.83
2018-11-01T03:09:06.147Z,2.23
2018-11-01T03:11:33.719Z,1.80
2018-11-01T03:14:01.329Z,2.30
2018-11-01T03:16:28.908Z,2.83
2018-11-01T03:18:56.478Z,2.57
2018-11-01T03:21:24.063Z,3.10
2018-11-01T03:23:51.668Z,2.67
2018-11-01T03:26:19.955Z,2.73
2018-11-01T03:28:47.564Z,3.73
2018-11-01T03:31:15.121Z,2.80
2018-11-01T03:33:43.125Z,4.20
2018-11-01T03:36:10.676Z,4.20
2018-11-01T03:38:38.250Z,4.53
2018-11-01T03:41:05.900Z,5.97
2018-11-01T03:43:33.611Z,5.03
2018-11-01T03:46:01.309Z,3.60
2018-11-01T03:48:29.232Z,3.97
2018-11-01T03:50:56.784Z,3.87
2018-11-01T03:53:24.355Z,3.87
2018-11-01T03:55:52.002Z,3.20
2018-11-01T03:58:19.684Z,3.17
2018-11-01T04:00:47.264Z,3.53
2018-11-01T04:03:14.807Z,5.27
2018-11-01T04:05:42.446Z,4.30
2018-11-01T04:08:10.028Z,3.50
2018-11-01T04:10:37.668Z,3.10
2018-11-01T04:13:05.676Z,2.80
2018-11-01T04:15:34.020Z,2.30
2018-11-01T04:18:01.654Z,3.53
2018-11-01T04:20:29.307Z,4.23
2018-11-01T04:22:56.977Z,3.30
2018-11-01T04:25:24.527Z,4.50
2018-11-01T04:27:52.230Z,4.50
2018-11-01T04:30:19.795Z,3.40
2018-11-01T04:32:47.343Z,3.00
2018-11-01T04:35:14.988Z,2.20
2018-11-01T04:37:42.522Z,4.17
2018-11-01T04:40:10.427Z,4.20
2018-11-01T04:42:38.069Z,4.53
2018-11-01T04:45:06.991Z,4.20
2018-11-01T04:47:34.557Z,4.30
2018-11-01T04:50:02.196Z,3.83
2018-11-01T04:52:29.756Z,4.33
2018-11-01T04:54:57.280Z,4.57
2018-11-01T04:57:24.817Z,4.37
2018-11-01T04:59:52.372Z,4.87
2018-11-01T05:02:19.920Z,3.33
2018-11-01T05:04:47.531Z,2.80
2018-11-01T05:07:15.060Z,2.67
2018-11-01T05:09:42.612Z,2.17
2018-11-01T05:12:10.372Z,1.83
2018-11-01T05:14:38.434Z,1.83
2018-11-01T05:17:06.027Z,1.50
2018-11-01T05:19:33.552Z,1.67
2018-11-01T05:22:01.152Z,2.00
2018-11-01T05:24:28.733Z,1.90
2018-11-01T05:26:56.279Z,3.30
2018-11-01T05:29:23.881Z,3.97
2018-11-01T05:31:52.094Z,3.47
2018-11-01T05:34:20.319Z,3.67
2018-11-01T05:36:48.781Z,2.83
2018-11-01T05:39:16.927Z,2.90
2018-11-01T05:41:44.756Z,3.00
2018-11-01T05:44:13.132Z,2.17
2018-11-01T05:46:40.828Z,2.80
2018-11-01T05:49:08.423Z,2.80
2018-11-01T05:51:35.927Z,2.80
2018-11-01T05:54:03.984Z,3.63
2018-11-01T05:56:32.592Z,2.90
2018-11-01T05:59:00.189Z,3.37
2018-11-01T06:01:32.582Z,4.30
2018-11-01T06:04:00.384Z,3.63
2018-11-01T06:06:28.093Z,3.40
2018-11-01T06:08:55.978Z,2.10
2018-11-01T06:11:23.544Z,2.57
2018-11-01T06:13:51.163Z,3.63
2018-11-01T06:16:18.747Z,3.37
2018-11-01T06:18:46.300Z,3.07
2018-11-01T06:21:13.836Z,3.43
2018-11-01T06:23:41.363Z,3.53
2018-11-01T06:26:09.374Z,3.30
2018-11-01T06:28:36.959Z,3.10
2018-11-01T06:31:04.808Z,3.17
2018-11-01T06:33:32.335Z,3.13
2018-11-01T06:36:02.725Z,3.30
2018-11-01T06:38:30.244Z,3.13
2018-11-01T06:40:58.049Z,3.43
2018-11-01T06:43:25.587Z,2.77
2018-11-01T06:45:54.168Z,3.30
2018-11-01T06:48:21.821Z,2.57
2018-11-01T06:50:49.366Z,2.97
2018-11-01T06:53:16.932Z,2.90
2018-11-01T06:55:44.461Z,3.03
2018-11-01T06:58:12.048Z,2.87
2018-11-01T07:00:40.770Z,2.60
2018-11-01T07:03:08.601Z,3.53
2018-11-01T07:05:36.243Z,3.90
2018-11-01T07:08:04.024Z,3.87
2018-11-01T07:10:31.600Z,2.90
2018-11-01T07:12:59.240Z,2.50
2018-11-01T07:15:26.832Z,2.20
2018-11-01T07:17:54.379Z,2.80
2018-11-01T07:20:21.951Z,2.80
2018-11-01T07:22:49.474Z,2.37
2018-11-01T07:25:17.280Z,2.37
2018-11-01T07:27:44.784Z,2.30
2018-11-01T07:30:13.891Z,1.70
2018-11-01T07:32:41.495Z,2.60
2018-11-01T07:35:10.152Z,2.27
2018-11-01T07:37:38.631Z,2.47
2018-11-01T07:40:07.992Z,2.87
2018-11-01T07:42:35.570Z,2.37
2018-11-01T07:45:03.652Z,3.83
2018-11-01T07:47:31.240Z,3.47
2018-11-01T07:49:59.166Z,3.00
2018-11-01T07:52:27.133Z,3.07
2018-11-01T07:54:54.761Z,6.33
2018-11-01T07:57:22.379Z,4.53
2018-11-01T07:59:49.911Z,3.70
2018-11-01T08:02:17.461Z,3.07
2018-11-01T08:04:44.997Z,3.50
2018-11-01T08:07:12.571Z,3.00
2018-11-01T08:09:40.070Z,3.07
2018-11-01T08:12:08.151Z,4.77
2018-11-01T08:14:35.818Z,4.50
2018-11-01T08:17:03.356Z,3.07
2018-11-01T08:19:30.944Z,3.67
2018-11-01T08:21:58.447Z,2.73
2018-11-01T08:24:25.955Z,2.70
2018-11-01T08:26:53.501Z,4.87
2018-11-01T08:29:21.057Z,3.83
2018-11-01T08:31:48.623Z,3.47
2018-11-01T08:34:16.215Z,3.27
2018-11-01T08:36:43.754Z,3.87
2018-11-01T08:39:11.316Z,3.43
2018-11-01T08:41:38.905Z,3.37
2018-11-01T08:44:06.568Z,2.97
2018-11-01T08:46:34.152Z,2.70
2018-11-01T08:49:01.818Z,3.50
2018-11-01T08:51:29.369Z,3.13
2018-11-01T08:53:57.080Z,3.40
2018-11-01T08:56:24.793Z,5.23
2018-11-01T08:58:53.436Z,42.80
2018-11-01T09:01:21.157Z,18.87
2018-11-01T09:03:48.692Z,13.30
2018-11-01T09:06:16.537Z,8.43
2018-11-01T09:08:44.197Z,7.23
2018-11-01T09:11:11.750Z,7.57
2018-11-01T09:13:39.313Z,7.00
2018-11-01T09:16:06.836Z,5.50
2018-11-01T09:18:34.368Z,4.37
2018-11-01T09:21:01.909Z,2.90
2018-11-01T09:23:30.008Z,2.30
2018-11-01T09:25:57.567Z,1.97
2018-11-01T09:28:25.180Z,2.10
2018-11-01T09:30:52.812Z,1.40
2018-11-01T09:33:20.438Z,1.10
2018-11-01T09:35:48.180Z,1.23
2018-11-01T09:38:15.671Z,1.93
2018-11-01T09:40:44.175Z,1.50
2018-11-01T09:43:12.059Z,1.50
2018-11-01T09:45:39.648Z,2.20
2018-11-01T09:48:07.269Z,1.97
2018-11-01T09:50:34.815Z,1.80
2018-11-01T09:53:02.399Z,1.70
2018-11-01T09:55:30.018Z,2.00
2018-11-01T09:57:57.529Z,4.80
2018-11-01T10:00:25.028Z,4.37
2018-11-01T10:02:58.855Z,3.30
2018-11-01T10:05:28.427Z,3.30
2018-11-01T10:07:55.995Z,3.40
2018-11-01T10:10:24.580Z,2.70
2018-11-01T10:12:55.510Z,2.20
2018-11-01T10:15:23.165Z,2.50
2018-11-01T10:17:51.460Z,4.20
2018-11-01T10:20:20.710Z,3.00
2018-11-01T10:22:50.541Z,2.73
2018-11-01T10:25:18.180Z,4.00
2018-11-01T10:27:45.926Z,3.90
2018-11-01T10:30:19.181Z,3.53
2018-11-01T10:32:46.780Z,2.80
2018-11-01T10:35:16.457Z,2.03
2018-11-01T10:37:45.219Z,2.10
2018-11-01T10:40:14.112Z,2.27
2018-11-01T10:42:41.748Z,2.30
2018-11-01T10:45:11.347Z,2.47
2018-11-01T10:47:39.281Z,2.00
2018-11-01T10:50:13.186Z,1.60
2018-11-01T10:52:49.309Z,2.83
2018-11-01T10:55:18.177Z,3.80
2018-11-01T10:57:45.794Z,4.43
2018-11-01T11:00:19.223Z,2.73
2018-11-01T11:02:48.953Z,2.20
2018-11-01T11:05:19.859Z,2.30
2018-11-01T11:07:47.963Z,2.03
2018-11-01T11:10:16.072Z,1.77
2018-11-01T11:12:43.675Z,1.87
2018-11-01T11:15:11.200Z,1.83
2018-11-01T11:17:39.089Z,3.13
2018-11-01T11:20:07.444Z,2.07
2018-11-01T11:22:35.294Z,2.10
2018-11-01T11:25:03.033Z,2.00
2018-11-01T11:27:30.664Z,1.93
2018-11-01T11:29:58.290Z,1.27
2018-11-01T11:32:25.928Z,1.60
2018-11-01T11:34:53.507Z,1.77
2018-11-01T11:37:21.028Z,2.10
2018-11-01T11:39:48.679Z,1.60
2018-11-01T11:42:16.953Z,1.80
2018-11-01T11:44:44.557Z,2.43
2018-11-01T11:47:12.161Z,2.10
2018-11-01T11:49:39.828Z,1.73
2018-11-01T11:52:08.003Z,2.00
2018-11-01T11:54:36.539Z,2.37
2018-11-01T11:57:04.325Z,2.50
2018-11-01T11:59:31.859Z,1.60
2018-11-01T12:01:59.727Z,2.10
2018-11-01T12:04:27.335Z,2.33
2018-11-01T12:06:54.876Z,2.60
2018-11-01T12:09:22.421Z,2.20
2018-11-01T12:11:49.947Z,2.47
2018-11-01T12:14:17.684Z,2.30
2018-11-01T12:16:45.144Z,1.53
2018-11-01T12:19:12.757Z,1.60
2018-11-01T12:21:40.364Z,1.50
2018-11-01T12:24:07.980Z,1.60
2018-11-01T12:26:35.547Z,1.20
2018-11-01T12:29:06.508Z,1.30
2018-11-01T12:31:34.010Z,1.40
2018-11-01T12:34:01.559Z,2.13
2018-11-01T12:36:29.229Z,2.00
2018-11-01T12:38:58.787Z,1.97
2018-11-01T12:41:26.435Z,2.30
2018-11-01T12:43:54.800Z,2.53
2018-11-01T12:46:22.518Z,2.50
2018-11-01T12:48:50.099Z,2.90
2018-11-01T12:51:18.965Z,3.93
2018-11-01T12:53:46.543Z,3.37
2018-11-01T12:56:14.136Z,4.90
2018-11-01T12:58:41.685Z,2.33
2018-11-01T13:01:09.341Z,2.47
2018-11-01T13:03:37.197Z,2.17
2018-11-01T13:06:04.866Z,3.47
2018-11-01T13:08:32.471Z,2.03
2018-11-01T13:11:00.076Z,2.90
2018-11-01T13:13:28.509Z,2.63
2018-11-01T13:15:56.096Z,3.67
2018-11-01T13:18:23.644Z,2.60
2018-11-01T13:20:51.203Z,2.30
2018-11-01T13:23:18.732Z,3.20
2018-11-01T13:25:46.695Z,2.70
2018-11-01T13:28:15.376Z,2.33
2018-11-01T13:30:42.904Z,3.50
2018-11-01T13:33:10.521Z,3.00
2018-11-01T13:35:38.293Z,2.50
2018-11-01T13:38:05.907Z,3.23
2018-11-01T13:40:33.847Z,2.80
2018-11-01T13:43:01.207Z,2.53
2018-11-01T13:45:28.923Z,2.33
2018-11-01T13:48:02.790Z,3.13
2018-11-01T13:50:30.160Z,3.70
2018-11-01T13:52:57.715Z,3.10
2018-11-01T13:55:25.265Z,3.10
2018-11-01T13:57:52.803Z,2.90
2018-11-01T14:00:20.359Z,2.83
2018-11-01T14:02:47.943Z,2.87
2018-11-01T14:05:16.216Z,2.53
2018-11-01T14:07:44.208Z,2.57
2018-11-01T14:10:12.999Z,2.77
2018-11-01T14:12:40.811Z,3.23
2018-11-01T14:15:09.521Z,3.00
2018-11-01T14:17:36.688Z,2.73
2018-11-01T14:20:05.463Z,3.40
2018-11-01T14:22:33.039Z,3.50
2018-11-01T14:25:00.582Z,4.00
2018-11-01T14:27:28.183Z,3.37
2018-11-01T14:29:56.820Z,3.47
2018-11-01T14:32:24.355Z,3.20
2018-11-01T14:34:52.048Z,3.77
2018-11-01T14:37:19.646Z,3.67
2018-11-01T14:39:47.272Z,3.07
2018-11-01T14:42:14.874Z,3.23
2018-11-01T14:44:42.500Z,3.00
2018-11-01T14:47:10.039Z,2.97
2018-11-01T14:49:37.559Z,2.93
2018-11-01T14:52:05.380Z,3.10
2018-11-01T14:54:33.893Z,3.40
2018-11-01T14:57:01.259Z,3.37
2018-11-01T14:59:29.726Z,3.07
2018-11-01T15:01:55.437Z,2.83
2018-11-01T15:04:22.992Z,2.70
2018-11-01T15:06:50.795Z,1.90
2018-11-01T15:09:18.332Z,2.87
2018-11-01T15:11:45.913Z,3.43
2018-11-01T15:14:13.543Z,3.00
2018-11-01T15:16:41.068Z,3.30
2018-11-01T15:19:09.161Z,2.97
2018-11-01T15:21:36.771Z,2.90
2018-11-01T15:24:04.768Z,2.37
2018-11-01T15:26:32.316Z,2.70
2018-11-01T15:28:59.929Z,2.33
2018-11-01T15:31:27.485Z,2.27
2018-11-01T15:33:55.071Z,2.30
2018-11-01T15:36:22.635Z,2.77
2018-11-01T15:38:50.184Z,3.10
2018-11-01T15:41:17.815Z,1.90
2018-11-01T15:43:45.390Z,2.13
2018-11-01T15:46:13.552Z,2.30
2018-11-01T15:48:41.360Z,2.07
2018-11-01T15:51:09.938Z,2.10
2018-11-01T15:53:38.065Z,1.57
2018-11-01T15:56:05.731Z,1.97
2018-11-01T15:58:33.428Z,1.93
2018-11-01T16:01:00.995Z,1.83
2018-11-01T16:03:28.620Z,1.83
2018-11-01T16:05:56.146Z,1.80
2018-11-01T16:08:23.699Z,1.60
2018-11-01T16:10:53.121Z,1.73
2018-11-01T16:13:20.695Z,3.93
2018-11-01T16:15:48.280Z,2.67
2018-11-01T16:18:15.831Z,2.57
2018-11-01T16:20:43.347Z,2.90
2018-11-01T16:23:10.892Z,2.57
2018-11-01T16:25:38.512Z,2.80
2018-11-01T16:28:06.144Z,2.40
2018-11-01T16:30:33.712Z,2.63
2018-11-01T16:33:01.316Z,2.70
2018-11-01T16:35:28.888Z,2.80
2018-11-01T16:37:56.413Z,2.90
2018-11-01T16:40:24.025Z,3.03
2018-11-01T16:42:51.622Z,3.00
2018-11-01T16:45:19.325Z,2.90
2018-11-01T16:47:46.795Z,3.20
2018-11-01T16:50:15.192Z,4.03
2018-11-01T16:52:42.971Z,3.47
2018-11-01T16:55:10.709Z,4.10
2018-11-01T16:57:38.508Z,6.53
2018-11-01T17:00:08.311Z,8.07
2018-11-01T17:02:35.886Z,9.40
2018-11-01T17:05:03.565Z,9.77
2018-11-01T17:07:31.060Z,8.07
2018-11-01T17:09:58.648Z,6.97
2018-11-01T17:12:26.348Z,19.87
2018-11-01T17:14:54.020Z,24.03
2018-11-01T17:17:21.548Z,19.47
2018-11-01T17:19:49.118Z,17.83
2018-11-01T17:22:16.724Z,13.63
2018-11-01T17:24:44.484Z,12.73
2018-11-01T17:27:11.965Z,13.90
2018-11-01T17:29:39.505Z,11.97
2018-11-01T17:32:07.067Z,9.57
2018-11-01T17:34:34.664Z,8.00
2018-11-01T17:37:02.192Z,6.20
2018-11-01T17:39:29.761Z,5.60
2018-11-01T17:41:57.366Z,6.47
2018-11-01T17:44:24.897Z,4.60
2018-11-01T17:46:52.430Z,3.93
2018-11-01T17:49:20.023Z,3.73
2018-11-01T17:51:49.259Z,3.20
2018-11-01T17:54:16.851Z,3.97
2018-11-01T17:56:44.934Z,3.73
2018-11-01T17:59:12.695Z,6.17
2018-11-01T18:01:40.343Z,5.83
2018-11-01T18:04:08.443Z,6.07
2018-11-01T18:06:36.172Z,5.23
2018-11-01T18:09:07.022Z,5.93
2018-11-01T18:11:34.503Z,10.23
2018-11-01T18:14:02.056Z,10.80
2018-11-01T18:16:29.589Z,9.43
2018-11-01T18:18:57.159Z,8.73
2018-11-01T18:21:24.670Z,9.90
2018-11-01T18:23:52.243Z,12.50
2018-11-01T18:26:19.803Z,11.83
2018-11-01T18:28:47.417Z,11.00
2018-11-01T18:31:15.048Z,12.70
2018-11-01T18:33:42.964Z,14.70
2018-11-01T18:36:10.544Z,14.17
2018-11-01T18:38:38.128Z,12.20
2018-11-01T18:41:05.752Z,10.57
2018-11-01T18:43:34.374Z,8.90
2018-11-01T18:46:01.995Z,7.03
2018-11-01T18:48:29.610Z,7.90
2018-11-01T18:50:57.210Z,6.57
2018-11-01T18:53:28.053Z,7.33
2018-11-01T18:55:55.813Z,7.60
2018-11-01T18:58:23.452Z,9.63
2018-11-01T19:00:51.887Z,8.00
2018-11-01T19:03:25.095Z,7.10
2018-11-01T19:05:52.752Z,7.43
2018-11-01T19:08:20.376Z,7.00
2018-11-01T19:10:48.039Z,6.30
2018-11-01T19:13:15.642Z,6.10
2018-11-01T19:15:43.968Z,6.53
2018-11-01T19:18:11.610Z,5.67
2018-11-01T19:20:39.490Z,4.47
2018-11-01T19:23:07.391Z,4.20
2018-11-01T19:25:35.052Z,6.47
2018-11-01T19:28:02.707Z,4.60
2018-11-01T19:30:30.300Z,6.00
2018-11-01T19:32:57.889Z,6.23
2018-11-01T19:35:25.499Z,4.13
2018-11-01T19:37:53.061Z,4.03
2018-11-01T19:40:20.661Z,3.80
2018-11-01T19:42:48.753Z,3.10
2018-11-01T19:45:16.424Z,3.20
2018-11-01T19:47:44.022Z,3.90
2018-11-01T19:50:15.304Z,4.07
2018-11-01T19:52:43.149Z,3.80
2018-11-01T19:55:10.815Z,4.10
2018-11-01T19:57:39.348Z,2.87
2018-11-01T20:00:09.740Z,4.00
2018-11-01T20:02:37.385Z,4.23
2018-11-01T20:05:07.023Z,6.77
2018-11-01T20:07:34.712Z,4.83
2018-11-01T20:10:02.409Z,3.67
2018-11-01T20:12:31.068Z,2.77
2018-11-01T20:14:59.754Z,3.20
2018-11-01T20:17:27.526Z,3.60
2018-11-01T20:19:56.766Z,3.70
2018-11-01T20:22:24.316Z,3.37
2018-11-01T20:24:52.155Z,2.47
2018-11-01T20:27:19.769Z,3.67
2018-11-01T20:29:47.380Z,2.80
2018-11-01T20:32:15.148Z,2.50
2018-11-01T20:34:42.712Z,2.63
2018-11-01T20:37:11.332Z,4.50
2018-11-01T20:39:39.065Z,5.73
2018-11-01T20:42:06.641Z,7.47
2018-11-01T20:44:34.308Z,12.40
2018-11-01T20:47:02.923Z,11.80
2018-11-01T20:49:30.476Z,8.67
2018-11-01T20:51:58.112Z,7.80
2018-11-01T20:54:26.043Z,7.77
2018-11-01T20:56:53.602Z,8.00
2018-11-01T20:59:21.158Z,8.63
2018-11-01T21:01:48.730Z,9.07
2018-11-01T21:04:16.398Z,7.83
2018-11-01T21:06:43.963Z,6.70
2018-11-01T21:09:12.019Z,5.67
2018-11-01T21:11:39.859Z,5.87
2018-11-01T21:14:07.258Z,4.60
2018-11-01T21:16:36.679Z,3.70
2018-11-01T21:19:04.524Z,7.00
2018-11-01T21:21:32.083Z,6.50
2018-11-01T21:23:59.634Z,4.73
2018-11-01T21:26:27.197Z,3.27
2018-11-01T21:28:54.792Z,3.87
2018-11-01T21:31:22.361Z,3.20
2018-11-01T21:33:49.921Z,2.80
2018-11-01T21:36:17.727Z,3.90
2018-11-01T21:38:45.290Z,3.73
2018-11-01T21:41:12.834Z,6.20
2018-11-01T21:43:40.402Z,6.80
2018-11-01T21:46:07.964Z,4.80
2018-11-01T21:48:35.512Z,2.90
2018-11-01T21:51:03.109Z,3.80
2018-11-01T21:53:30.765Z,3.83
2018-11-01T21:55:58.536Z,3.40
2018-11-01T21:58:26.090Z,4.10
2018-11-01T22:00:53.655Z,3.33
2018-11-01T22:03:21.190Z,3.23
2018-11-01T22:05:48.798Z,3.10
2018-11-01T22:08:16.479Z,3.10
2018-11-01T22:10:45.054Z,3.20
2018-11-01T22:13:12.715Z,2.97
2018-11-01T22:15:40.284Z,2.70
2018-11-01T22:18:07.818Z,2.43
2018-11-01T22:20:35.428Z,2.37
2018-11-01T22:23:03.018Z,4.23
2018-11-01T22:25:30.595Z,2.53
2018-11-01T22:27:58.193Z,3.00
2018-11-01T22:30:25.721Z,5.13
2018-11-01T22:32:53.251Z,2.30
2018-11-01T22:35:20.844Z,1.97
2018-11-01T22:37:48.400Z,2.07
2018-11-01T22:40:15.970Z,2.23
2018-11-01T22:42:43.591Z,2.00
2018-11-01T22:45:11.726Z,2.00
2018-11-01T22:47:39.630Z,2.07
2018-11-01T22:50:08.153Z,1.80
2018-11-01T22:52:35.852Z,2.10
2018-11-01T22:55:04.044Z,1.67
2018-11-01T22:57:31.575Z,1.73
2018-11-01T22:59:59.266Z,2.03
2018-11-01T23:02:26.731Z,2.10
2018-11-01T23:04:54.316Z,2.10
2018-11-01T23:07:21.890Z,2.37
2018-11-01T23:09:49.485Z,3.23
2018-11-01T23:12:17.103Z,3.67
2018-11-01T23:14:44.647Z,3.57
2018-11-01T23:17:12.230Z,8.87
2018-11-01T23:19:39.858Z,6.37
2018-11-01T23:22:07.419Z,4.33
2018-11-01T23:24:35.123Z,4.30
2018-11-01T23:27:02.721Z,6.10
2018-11-01T23:29:30.345Z,4.50
2018-11-01T23:31:57.954Z,7.27
2018-11-01T23:34:25.484Z,4.10
2018-11-01T23:36:58.757Z,4.30
2018-11-01T23:39:31.911Z,4.50
2018-11-01T23:42:05.188Z,3.70
2018-11-01T23:44:38.364Z,4.13
2018-11-01T23:47:11.635Z,4.20
2018-11-01T23:49:44.660Z,5.00
2018-11-01T23:52:14.313Z,4.57
2018-11-01T23:54:41.892Z,3.30
2018-11-01T23:57:09.444Z,5.10
2018-11-01T23:59:36.988Z,4.17
